< < Back
Terminal Aerodrome Forecast


Current Version              Previous Versions:   1  2  3  4  5  6  7  8  9  

Terminal Aerodrome Forecast

815
FTUS42 KTAE 220000 AAA
TAFVLD
TAF AMD
KVLD 220028Z 2200/2224 00000KT P6SM SKC
     FM221400 28004KT P6SM SCT040=

Latest METAR

741
SAUS70 KWBC 222000 RRG
MTRVLD
METAR KVLD 221953Z 00000KT 10SM SCT035 32/14 A2996 RMK AO2 SLP150
T03170144


USA.gov is the U.S. government's official web portal to all federal, state and local government web resources and services.